Columbus Grove, Ohio
Current Conditions -  °F | °C
As of 11:19 AM on Friday 19 Dec 2014 (Local Time) from KAOH Reporting Station
Haze Haze  
Wind Chill: 22°   Ceiling: 2000
Heat Index: 30°   Visibility: 5mi
Dew Point: 23°   Wind: 9mph
Humidity: 75%   Direction: 250°WSW
Pressure: 30.27"   Gusts: NA
Location:  40.92°N, 84.06°W
Report Text: KAOH 191619Z AUTO 25008KT 5SM HZ FEW012 OVC020 M01/M05 A3027 RMK AO2 T10111050
Loading
Personal Weather Stations






























Interactive Weather Map New forecast layout! Learn more

10-Day Weather Forecast

Advertisements
Track Severe Weather on mobile